createdAt,value
2019-05-21T00:01:34.939Z,97055.11
2019-05-21T00:04:06.924Z,97052.70
2019-05-21T00:06:38.887Z,97057.83
2019-05-21T00:09:10.921Z,97053.21
2019-05-21T00:11:42.854Z,97043.47
2019-05-21T00:14:14.871Z,97043.72
2019-05-21T00:16:46.835Z,97047.31
2019-05-21T00:19:18.855Z,97051.31
2019-05-21T00:21:50.850Z,97053.04
2019-05-21T00:24:22.843Z,97046.77
2019-05-21T00:26:54.793Z,97052.70
2019-05-21T00:30:03.326Z,97056.89
2019-05-21T00:33:12.241Z,97055.23
2019-05-21T00:36:22.590Z,97047.62
2019-05-21T00:39:31.319Z,97046.53
2019-05-21T00:42:02.369Z,97045.80
2019-05-21T00:44:39.907Z,97045.56
2019-05-21T00:47:12.369Z,97051.52
2019-05-21T00:49:44.355Z,97051.76
2019-05-21T00:52:16.305Z,97048.39
2019-05-21T00:54:48.317Z,97050.66
2019-05-21T00:57:20.255Z,97054.81
2019-05-21T00:59:52.268Z,97046.53
2019-05-21T01:02:24.255Z,97052.48
2019-05-21T01:05:00.563Z,97047.16
2019-05-21T01:07:30.125Z,97042.16
2019-05-21T01:10:02.486Z,97040.73
2019-05-21T01:12:34.889Z,97039.17
2019-05-21T01:15:06.869Z,97040.11
2019-05-21T01:17:38.870Z,97046.32
2019-05-21T01:20:10.913Z,97038.48
2019-05-21T01:22:42.895Z,97034.88
2019-05-21T01:25:14.883Z,97038.38
2019-05-21T01:27:46.837Z,97050.17
2019-05-21T01:30:18.830Z,97047.25
2019-05-21T01:32:50.798Z,97049.61
2019-05-21T01:35:22.800Z,97048.30
2019-05-21T01:37:54.768Z,97052.03
2019-05-21T01:40:26.747Z,97053.04
2019-05-21T01:42:58.704Z,97052.03
2019-05-21T01:45:30.669Z,97055.26
2019-05-21T01:48:02.683Z,97049.68
2019-05-21T01:50:34.725Z,97052.70
2019-05-21T01:53:06.713Z,97059.89
2019-05-21T01:55:38.675Z,97054.33
2019-05-21T01:58:10.684Z,97068.09
2019-05-21T02:00:42.651Z,97062.20
2019-05-21T02:03:14.632Z,97059.87
2019-05-21T02:05:46.633Z,97062.02
2019-05-21T02:08:18.625Z,97061.37
2019-05-21T02:10:50.596Z,97060.56
2019-05-21T02:13:22.593Z,97059.77
2019-05-21T02:15:54.576Z,97068.27
2019-05-21T02:18:26.554Z,97059.53
2019-05-21T02:20:58.510Z,97057.45
2019-05-21T02:23:30.722Z,97059.25
2019-05-21T02:26:02.925Z,97063.41
2019-05-21T02:28:34.902Z,97069.16
2019-05-21T02:31:06.897Z,97069.03
2019-05-21T02:33:38.969Z,97067.15
2019-05-21T02:36:10.922Z,97069.34
2019-05-21T02:38:43.031Z,97070.58
2019-05-21T02:41:14.991Z,97069.19
2019-05-21T02:43:47.056Z,97070.82
2019-05-21T02:46:19.003Z,97071.41
2019-05-21T02:48:51.016Z,97076.30
2019-05-21T02:51:23.097Z,97077.13
2019-05-21T02:53:55.146Z,97078.95
2019-05-21T02:56:27.106Z,97078.53
2019-05-21T02:58:59.102Z,97074.59
2019-05-21T03:01:49.399Z,97078.31
2019-05-21T03:04:21.368Z,97076.38
2019-05-21T03:06:55.602Z,97075.45
2019-05-21T03:09:27.580Z,97083.27
2019-05-21T03:11:59.589Z,97086.98
2019-05-21T03:14:31.555Z,97087.92
2019-05-21T03:17:03.522Z,97091.66
2019-05-21T03:19:35.494Z,97093.52
2019-05-21T03:22:07.578Z,97091.15
2019-05-21T03:24:39.555Z,97092.61
2019-05-21T03:27:11.528Z,97094.11
2019-05-21T03:29:43.524Z,97098.64
2019-05-21T03:32:15.508Z,97098.72
2019-05-21T03:34:47.481Z,97099.06
2019-05-21T03:37:19.431Z,97105.81
2019-05-21T03:39:51.404Z,97098.95
2019-05-21T03:42:23.347Z,97100.23
2019-05-21T03:44:59.704Z,97107.20
2019-05-21T03:47:29.279Z,97104.08
2019-05-21T03:50:01.253Z,97101.09
2019-05-21T03:52:33.432Z,97104.94
2019-05-21T03:55:05.807Z,97111.57
2019-05-21T03:57:37.756Z,97113.88
2019-05-21T04:00:10.756Z,97127.56
2019-05-21T04:02:42.706Z,97132.69
2019-05-21T04:05:22.346Z,97133.37
2019-05-21T04:07:54.309Z,97133.44
2019-05-21T04:10:26.262Z,97135.13
2019-05-21T04:13:08.094Z,97134.91
2019-05-21T04:15:59.276Z,97136.83
2019-05-21T04:18:39.339Z,97127.67
2019-05-21T04:21:11.456Z,97135.81
2019-05-21T04:23:43.502Z,97132.23
2019-05-21T04:26:15.573Z,97127.33
2019-05-21T04:28:47.615Z,97134.65
2019-05-21T04:31:19.579Z,97132.27
2019-05-21T04:33:51.580Z,97138.75
2019-05-21T04:36:23.551Z,97137.63
2019-05-21T04:38:55.502Z,97136.41
2019-05-21T04:41:27.477Z,97132.23
2019-05-21T04:43:59.427Z,97133.02
2019-05-21T04:46:31.537Z,97134.84
2019-05-21T04:49:03.512Z,97132.34
2019-05-21T04:51:35.511Z,97130.31
2019-05-21T04:54:07.498Z,97130.42
2019-05-21T04:56:39.773Z,97133.14
2019-05-21T04:59:11.735Z,97132.73
2019-05-21T05:01:43.788Z,97135.25
2019-05-21T05:04:21.131Z,97134.13
2019-05-21T05:06:49.674Z,97136.53
2019-05-21T05:09:21.635Z,97138.48
2019-05-21T05:11:53.685Z,97142.64
2019-05-21T05:14:25.698Z,97143.62
2019-05-21T05:16:57.705Z,97151.80
2019-05-21T05:19:29.769Z,97146.66
2019-05-21T05:22:01.728Z,97146.33
2019-05-21T05:24:37.023Z,97144.44
2019-05-21T05:27:07.661Z,97150.28
2019-05-21T05:29:39.596Z,97149.23
2019-05-21T05:32:11.611Z,97150.39
2019-05-21T05:34:43.584Z,97152.02
2019-05-21T05:37:15.563Z,97150.40
2019-05-21T05:39:47.539Z,97148.52
2019-05-21T05:42:19.501Z,97152.09
2019-05-21T05:44:51.487Z,97141.05
2019-05-21T05:47:23.471Z,97149.23
2019-05-21T05:49:57.610Z,97145.03
2019-05-21T05:52:29.651Z,97141.12
2019-05-21T05:55:01.633Z,97136.19
2019-05-21T05:57:33.587Z,97139.73
2019-05-21T06:00:08.400Z,97142.22
2019-05-21T06:02:40.417Z,97144.21
2019-05-21T06:05:12.496Z,97143.87
2019-05-21T06:07:58.839Z,97141.23
2019-05-21T06:10:18.457Z,97133.63
2019-05-21T06:12:50.429Z,97135.28
2019-05-21T06:15:22.693Z,97134.83
2019-05-21T06:17:54.742Z,97137.47
2019-05-21T06:20:26.699Z,97141.66
2019-05-21T06:22:58.764Z,97139.20
2019-05-21T06:25:30.766Z,97138.98
2019-05-21T06:28:02.696Z,97133.36
2019-05-21T06:30:34.682Z,97138.22
2019-05-21T06:33:06.662Z,97141.66
2019-05-21T06:35:38.637Z,97143.50
2019-05-21T06:38:17.685Z,97139.43
2019-05-21T06:40:44.562Z,97125.22
2019-05-21T06:43:16.532Z,97130.69
2019-05-21T06:45:48.497Z,97133.25
2019-05-21T06:48:20.442Z,97132.84
2019-05-21T06:50:52.459Z,97133.33
2019-05-21T06:53:24.409Z,97136.08
2019-05-21T06:55:56.437Z,97139.20
2019-05-21T06:58:28.401Z,97143.34
2019-05-21T07:01:00.399Z,97145.84
2019-05-21T07:03:32.477Z,97142.94
2019-05-21T07:06:04.451Z,97148.17
2019-05-21T07:08:36.418Z,97145.39
2019-05-21T07:11:08.408Z,97146.36
2019-05-21T07:13:40.453Z,97149.45
2019-05-21T07:16:12.464Z,97154.51
2019-05-21T07:18:44.466Z,97160.45
2019-05-21T07:21:16.450Z,97164.00
2019-05-21T07:23:48.444Z,97160.04
2019-05-21T07:26:20.514Z,97165.66
2019-05-21T07:28:54.380Z,97165.40
2019-05-21T07:31:26.689Z,97165.13
2019-05-21T07:33:58.717Z,97177.19
2019-05-21T07:36:33.658Z,97155.97
2019-05-21T07:39:06.158Z,97161.33
2019-05-21T07:41:38.167Z,97163.36
2019-05-21T07:44:10.146Z,97166.56
2019-05-21T07:46:42.123Z,97167.33
2019-05-21T07:49:14.208Z,97167.97
2019-05-21T07:51:46.198Z,97164.83
2019-05-21T07:54:18.223Z,97166.00
2019-05-21T07:56:50.190Z,97173.16
2019-05-21T07:59:22.183Z,97167.73
2019-05-21T08:01:54.158Z,97169.43
2019-05-21T08:04:26.155Z,97179.63
2019-05-21T08:06:58.141Z,97194.22
2019-05-21T08:09:30.106Z,97187.05
2019-05-21T08:12:18.296Z,97194.06
2019-05-21T08:14:36.048Z,97201.04
2019-05-21T08:17:08.068Z,97195.67
2019-05-21T08:19:40.043Z,97204.42
2019-05-21T08:22:12.048Z,97205.53
2019-05-21T08:24:44.020Z,97208.09
2019-05-21T08:27:16.028Z,97209.98
2019-05-21T08:29:48.044Z,97203.73
2019-05-21T08:32:20.344Z,97207.34
2019-05-21T08:34:52.322Z,97208.22
2019-05-21T08:37:24.329Z,97224.66
2019-05-21T08:39:56.317Z,97212.55
2019-05-21T08:42:28.303Z,97212.37
2019-05-21T08:45:00.321Z,97217.83
2019-05-21T08:47:32.295Z,97216.43
2019-05-21T08:50:05.046Z,97216.80
2019-05-21T08:52:37.050Z,97220.88
2019-05-21T08:55:09.083Z,97218.66
2019-05-21T08:57:41.048Z,97219.00
2019-05-21T09:00:15.397Z,97211.92
2019-05-21T09:02:47.385Z,97223.69
2019-05-21T09:05:19.455Z,97224.44
2019-05-21T09:07:53.579Z,97220.48
2019-05-21T09:10:25.375Z,97226.48
2019-05-21T09:12:57.481Z,97230.56
2019-05-21T09:15:29.541Z,97227.69
2019-05-21T09:18:01.626Z,97235.57
2019-05-21T09:20:33.657Z,97235.88
2019-05-21T09:23:05.656Z,97233.08
2019-05-21T09:25:37.653Z,97231.73
2019-05-21T09:28:09.687Z,97237.95
2019-05-21T09:30:41.676Z,97244.62
2019-05-21T09:33:13.626Z,97239.34
2019-05-21T09:35:45.716Z,97249.22
2019-05-21T09:38:17.933Z,97252.05
2019-05-21T09:40:50.494Z,97256.16
2019-05-21T09:43:22.460Z,97260.87
2019-05-21T09:45:54.475Z,97257.13
2019-05-21T09:48:26.502Z,97265.27
2019-05-21T09:50:58.517Z,97263.20
2019-05-21T09:53:30.574Z,97260.75
2019-05-21T09:56:22.179Z,97263.59
2019-05-21T09:58:56.063Z,97273.47
2019-05-21T10:01:40.789Z,97267.39
2019-05-21T10:04:12.743Z,97277.05
2019-05-21T10:06:44.727Z,97280.89
2019-05-21T10:09:18.707Z,97288.13
2019-05-21T10:11:50.752Z,97284.58
2019-05-21T10:14:22.771Z,97291.10
2019-05-21T10:16:54.778Z,97291.00
2019-05-21T10:19:26.763Z,97301.02
2019-05-21T10:21:58.835Z,97301.67
2019-05-21T10:24:30.783Z,97303.30
2019-05-21T10:27:03.525Z,97301.80
2019-05-21T10:29:35.673Z,97308.33
2019-05-21T10:32:07.713Z,97310.06
2019-05-21T10:34:39.687Z,97316.35
2019-05-21T10:37:11.720Z,97315.91
2019-05-21T10:39:43.683Z,97311.54
2019-05-21T10:42:15.691Z,97313.81
2019-05-21T10:44:47.795Z,97318.72
2019-05-21T10:47:19.753Z,97312.42
2019-05-21T10:49:51.727Z,97312.56
2019-05-21T10:52:24.074Z,97318.11
2019-05-21T10:54:56.062Z,97313.92
2019-05-21T10:57:28.130Z,97323.13
2019-05-21T11:00:00.144Z,97328.74
2019-05-21T11:02:55.255Z,97331.30
2019-05-21T11:05:35.590Z,97323.73
2019-05-21T11:08:24.801Z,97332.17
2019-05-21T11:10:41.771Z,97329.53
2019-05-21T11:13:14.184Z,97331.17
2019-05-21T11:15:46.161Z,97337.20
2019-05-21T11:18:18.140Z,97339.58
2019-05-21T11:20:50.136Z,97347.70
2019-05-21T11:23:22.211Z,97347.00
2019-05-21T11:25:54.216Z,97351.67
2019-05-21T11:28:26.232Z,97355.06
2019-05-21T11:30:58.204Z,97356.58
2019-05-21T11:33:30.222Z,97365.31
2019-05-21T11:36:02.238Z,97367.05
2019-05-21T11:38:40.059Z,97361.25
2019-05-21T11:41:08.229Z,97361.04
2019-05-21T11:43:40.207Z,97372.74
2019-05-21T11:46:12.219Z,97380.16
2019-05-21T11:48:44.251Z,97386.08
2019-05-21T11:51:16.549Z,97386.20
2019-05-21T11:53:48.668Z,97388.96
2019-05-21T11:56:20.671Z,97397.64
2019-05-21T11:58:52.714Z,97393.77
2019-05-21T12:01:24.757Z,97397.41
2019-05-21T12:03:56.806Z,97403.62
2019-05-21T12:06:28.815Z,97400.30
2019-05-21T12:09:00.851Z,97407.36
2019-05-21T12:11:32.809Z,97406.45
2019-05-21T12:14:05.035Z,97418.78
2019-05-21T12:16:37.129Z,97419.81
2019-05-21T12:19:09.232Z,97419.95
2019-05-21T12:21:41.189Z,97424.73
2019-05-21T12:24:13.261Z,97428.12
2019-05-21T12:26:45.248Z,97426.64
2019-05-21T12:29:17.270Z,97429.74
2019-05-21T12:31:49.247Z,97430.49
2019-05-21T12:34:21.346Z,97436.73
2019-05-21T12:36:53.636Z,97440.92
2019-05-21T12:39:25.673Z,97439.80
2019-05-21T12:41:57.684Z,97440.94
2019-05-21T12:44:29.862Z,97441.75
2019-05-21T12:47:01.872Z,97449.48
2019-05-21T12:49:33.883Z,97454.04
2019-05-21T12:52:05.948Z,97459.58
2019-05-21T12:54:37.924Z,97457.09
2019-05-21T12:57:09.957Z,97462.52
2019-05-21T12:59:41.944Z,97458.75
2019-05-21T13:02:13.956Z,97463.42
2019-05-21T13:04:45.962Z,97466.91
2019-05-21T13:07:17.970Z,97476.14
2019-05-21T13:09:49.995Z,97478.03
2019-05-21T13:12:22.029Z,97480.73
2019-05-21T13:14:54.803Z,97481.72
2019-05-21T13:17:26.847Z,97484.57
2019-05-21T13:19:58.900Z,97488.09
2019-05-21T13:22:30.989Z,97493.34
2019-05-21T13:25:03.716Z,97497.48
2019-05-21T13:27:35.768Z,97497.84
2019-05-21T13:30:08.180Z,97495.34
2019-05-21T13:32:43.669Z,97503.45
2019-05-21T13:35:14.191Z,97507.30
2019-05-21T13:37:46.202Z,97512.41
2019-05-21T13:40:18.405Z,97509.16
2019-05-21T13:42:50.405Z,97525.86
2019-05-21T13:45:22.411Z,97527.06
2019-05-21T13:47:54.392Z,97529.80
2019-05-21T13:50:26.413Z,97527.53
2019-05-21T13:52:58.448Z,97536.27
2019-05-21T13:55:33.990Z,97530.59
2019-05-21T13:58:04.346Z,97533.00
2019-05-21T14:00:51.946Z,97538.38
2019-05-21T14:03:23.939Z,97542.34
2019-05-21T14:05:55.990Z,97538.67
2019-05-21T14:08:27.991Z,97550.45
2019-05-21T14:11:00.069Z,97547.27
2019-05-21T14:13:32.203Z,97546.95
2019-05-21T14:16:04.279Z,97553.02
2019-05-21T14:18:36.301Z,97552.52
2019-05-21T14:21:08.327Z,97549.66
2019-05-21T14:23:40.396Z,97559.11
2019-05-21T14:26:12.432Z,97559.62
2019-05-21T14:28:45.629Z,97569.70
2019-05-21T14:31:17.651Z,97568.47
2019-05-21T14:33:49.698Z,97571.28
2019-05-21T14:36:21.785Z,97581.59
2019-05-21T14:38:53.768Z,97585.64
2019-05-21T14:41:25.885Z,97581.97
2019-05-21T14:43:57.900Z,97590.24
2019-05-21T14:46:29.949Z,97592.47
2019-05-21T14:49:01.985Z,97592.68
2019-05-21T14:51:34.021Z,97601.50
2019-05-21T14:54:06.477Z,97599.22
2019-05-21T14:56:38.452Z,97598.88
2019-05-21T14:59:10.454Z,97605.09
2019-05-21T15:01:42.440Z,97603.94
2019-05-21T15:04:14.599Z,97610.35
2019-05-21T15:06:46.825Z,97607.45
2019-05-21T15:09:18.842Z,97609.02
2019-05-21T15:11:50.938Z,97613.00
2019-05-21T15:14:22.977Z,97623.11
2019-05-21T15:16:55.050Z,97619.74
2019-05-21T15:19:27.060Z,97622.13
2019-05-21T15:21:59.076Z,97624.09
2019-05-21T15:24:33.444Z,97626.66
2019-05-21T15:27:05.127Z,97627.09
2019-05-21T15:29:37.177Z,97630.20
2019-05-21T15:32:09.235Z,97633.20
2019-05-21T15:34:41.257Z,97632.31
2019-05-21T15:37:13.378Z,97630.91
2019-05-21T15:39:45.372Z,97636.56
2019-05-21T15:42:18.834Z,97649.94
2019-05-21T15:44:50.919Z,97646.87
2019-05-21T15:47:22.958Z,97645.69
2019-05-21T15:49:54.989Z,97652.17
2019-05-21T15:52:27.047Z,97654.73
2019-05-21T15:54:59.076Z,97659.38
2019-05-21T15:57:31.133Z,97657.09
2019-05-21T16:00:04.010Z,97662.63
2019-05-21T16:02:36.050Z,97656.67
2019-05-21T16:05:08.175Z,97669.58
2019-05-21T16:07:40.228Z,97666.61
2019-05-21T16:10:12.332Z,97664.59
2019-05-21T16:12:44.391Z,97670.18
2019-05-21T16:15:16.408Z,97660.47
2019-05-21T16:17:48.455Z,97667.97
2019-05-21T16:20:20.437Z,97674.52
2019-05-21T16:22:52.503Z,97668.79
2019-05-21T16:25:24.919Z,97671.35
2019-05-21T16:27:56.940Z,97676.59
2019-05-21T16:30:28.988Z,97678.97
2019-05-21T16:33:01.041Z,97689.83
2019-05-21T16:35:33.406Z,97684.78
2019-05-21T16:38:05.633Z,97685.98
2019-05-21T16:40:37.651Z,97688.36
2019-05-21T16:43:09.711Z,97686.75
2019-05-21T16:45:41.723Z,97692.62
2019-05-21T16:48:13.789Z,97706.37
2019-05-21T16:50:45.854Z,97703.85
2019-05-21T16:53:17.880Z,97704.08
2019-05-21T16:55:49.954Z,97705.45
2019-05-21T16:58:22.036Z,97701.38
2019-05-21T17:00:54.026Z,97709.30
2019-05-21T17:03:26.049Z,97709.30
2019-05-21T17:05:58.053Z,97709.25
2019-05-21T17:08:30.270Z,97723.13
2019-05-21T17:11:02.311Z,97720.80
2019-05-21T17:13:34.392Z,97724.96
2019-05-21T17:16:06.480Z,97727.94
2019-05-21T17:18:38.508Z,97725.84
2019-05-21T17:21:10.777Z,97732.33
2019-05-21T17:23:42.788Z,97735.95
2019-05-21T17:26:14.887Z,97734.48
2019-05-21T17:28:46.888Z,97738.20
2019-05-21T17:31:18.995Z,97733.92
2019-05-21T17:33:51.111Z,97737.91
2019-05-21T17:36:23.152Z,97737.97
2019-05-21T17:38:55.175Z,97746.66
2019-05-21T17:41:27.347Z,97746.56
2019-05-21T17:43:59.420Z,97748.20
2019-05-21T17:46:31.671Z,97741.80
2019-05-21T17:49:03.697Z,97748.67
2019-05-21T17:51:35.858Z,97757.59
2019-05-21T17:54:08.018Z,97766.86
2019-05-21T17:56:40.100Z,97764.16
2019-05-21T17:59:12.114Z,97766.89
2019-05-21T18:01:44.434Z,97766.95
2019-05-21T18:04:16.566Z,97768.31
2019-05-21T18:06:48.968Z,97769.59
2019-05-21T18:09:22.765Z,97781.59
2019-05-21T18:11:55.005Z,97780.00
2019-05-21T18:14:27.807Z,97786.09
2019-05-21T18:17:00.130Z,97786.58
2019-05-21T18:19:32.465Z,97793.95
2019-05-21T18:22:05.529Z,97797.81
2019-05-21T18:24:38.580Z,97796.22
2019-05-21T18:27:10.770Z,97799.98
2019-05-21T18:29:42.822Z,97803.61
2019-05-21T18:32:15.070Z,97803.20
2019-05-21T18:34:47.118Z,97803.78
2019-05-21T18:37:19.318Z,97810.19
2019-05-21T18:39:51.354Z,97810.33
2019-05-21T18:42:23.540Z,97821.14
2019-05-21T18:44:55.578Z,97819.45
2019-05-21T18:47:27.733Z,97825.84
2019-05-21T18:49:59.792Z,97826.97
2019-05-21T18:52:31.924Z,97828.70
2019-05-21T18:55:04.961Z,97830.67
2019-05-21T18:57:37.004Z,97838.36
2019-05-21T19:00:09.771Z,97834.52
2019-05-21T19:02:42.138Z,97839.48
2019-05-21T19:05:14.357Z,97838.56
2019-05-21T19:07:46.667Z,97841.48
2019-05-21T19:10:18.636Z,97846.81
2019-05-21T19:12:50.730Z,97844.10
2019-05-21T19:15:22.769Z,97849.73
2019-05-21T19:17:54.873Z,97853.03
2019-05-21T19:20:26.887Z,97862.86
2019-05-21T19:22:59.016Z,97858.62
2019-05-21T19:25:31.039Z,97869.11
2019-05-21T19:28:03.133Z,97873.02
2019-05-21T19:30:35.163Z,97875.98
2019-05-21T19:33:07.228Z,97882.14
2019-05-21T19:35:39.269Z,97881.20
2019-05-21T19:38:11.373Z,97884.34
2019-05-21T19:40:43.522Z,97889.21
2019-05-21T19:43:15.648Z,97897.77
2019-05-21T19:45:47.715Z,97895.05
2019-05-21T19:48:19.839Z,97894.44
2019-05-21T19:50:51.852Z,97896.50
2019-05-21T19:53:23.984Z,97900.65
2019-05-21T19:55:56.107Z,97913.81
2019-05-21T19:58:28.060Z,97910.53
2019-05-21T20:01:00.532Z,97909.15
2019-05-21T20:03:32.561Z,97912.34
2019-05-21T20:06:05.068Z,97914.43
2019-05-21T20:08:37.350Z,97918.13
2019-05-21T20:11:09.463Z,97924.22
2019-05-21T20:13:41.658Z,97925.00
2019-05-21T20:16:14.166Z,97921.72
2019-05-21T20:18:46.456Z,97931.25
2019-05-21T20:21:19.037Z,97925.50
2019-05-21T20:23:51.533Z,97933.66
2019-05-21T20:26:24.277Z,97930.53
2019-05-21T20:28:56.313Z,97930.38
2019-05-21T20:31:28.991Z,97933.25
2019-05-21T20:34:01.537Z,97936.63
2019-05-21T20:36:33.706Z,97937.69
2019-05-21T20:39:08.005Z,97939.12
2019-05-21T20:41:41.366Z,97948.25
2019-05-21T20:44:15.434Z,97938.77
2019-05-21T20:46:47.861Z,97940.41
2019-05-21T20:49:19.917Z,97940.25
2019-05-21T20:51:52.371Z,97942.56
2019-05-21T20:54:26.655Z,97946.16
2019-05-21T20:56:58.948Z,97943.28
2019-05-21T20:59:30.917Z,97952.81
2019-05-21T21:02:05.818Z,97950.16
2019-05-21T21:04:38.009Z,97954.56
2019-05-21T21:07:10.013Z,97948.25
2019-05-21T21:09:42.075Z,97951.75
2019-05-21T21:12:14.489Z,97949.53
2019-05-21T21:14:47.990Z,97952.55
2019-05-21T21:17:20.122Z,97952.66
2019-05-21T21:19:52.644Z,97954.50
2019-05-21T21:22:24.710Z,97953.53
2019-05-21T21:24:56.693Z,97952.31
2019-05-21T21:27:28.794Z,97961.84
2019-05-21T21:30:00.773Z,97955.12
2019-05-21T21:32:33.895Z,97966.17
2019-05-21T21:35:08.163Z,97968.80
2019-05-21T21:37:40.181Z,97971.05
2019-05-21T21:40:13.981Z,97978.48
2019-05-21T21:42:46.022Z,97978.68
2019-05-21T21:45:18.019Z,97974.58
2019-05-21T21:47:50.280Z,97984.11
2019-05-21T21:50:22.778Z,97980.17
2019-05-21T21:52:54.845Z,97988.36
2019-05-21T21:55:26.789Z,97984.17
2019-05-21T21:57:58.800Z,97985.54
2019-05-21T22:01:19.199Z,97981.44
2019-05-21T22:03:51.199Z,97984.98
2019-05-21T22:06:24.655Z,97988.98
2019-05-21T22:08:57.021Z,97993.23
2019-05-21T22:11:29.200Z,97996.59
2019-05-21T22:14:02.426Z,97988.27
2019-05-21T22:16:34.707Z,97994.81
2019-05-21T22:19:07.625Z,97998.11
2019-05-21T22:21:39.603Z,97994.67
2019-05-21T22:24:12.802Z,97989.14
2019-05-21T22:26:44.959Z,98001.08
2019-05-21T22:29:16.977Z,97994.83
2019-05-21T22:31:48.948Z,97996.61
2019-05-21T22:34:21.355Z,97999.08
2019-05-21T22:36:53.400Z,97998.45
2019-05-21T22:39:31.708Z,98004.30
2019-05-21T22:42:04.290Z,98004.92
2019-05-21T22:44:36.796Z,98003.64
2019-05-21T22:47:10.068Z,98003.80
2019-05-21T22:49:42.077Z,98003.89
2019-05-21T22:52:14.157Z,98006.67
2019-05-21T22:54:46.114Z,98005.56
2019-05-21T22:57:18.118Z,98002.66
2019-05-21T22:59:50.057Z,98013.01
2019-05-21T23:02:26.985Z,98005.80
2019-05-21T23:04:59.133Z,98003.47
2019-05-21T23:07:31.155Z,98001.56
2019-05-21T23:10:04.789Z,98006.45
2019-05-21T23:12:37.361Z,98001.89
2019-05-21T23:15:23.755Z,98005.73
2019-05-21T23:17:43.333Z,98002.36
2019-05-21T23:20:16.272Z,98009.57
2019-05-21T23:22:48.597Z,98006.86
2019-05-21T23:25:21.575Z,98004.37
2019-05-21T23:27:53.534Z,98005.33
2019-05-21T23:30:26.457Z,98003.95
2019-05-21T23:32:59.340Z,98006.68
2019-05-21T23:35:31.914Z,98007.64
2019-05-21T23:38:05.405Z,98010.14
2019-05-21T23:40:37.689Z,98016.91
2019-05-21T23:43:09.786Z,98017.73
2019-05-21T23:45:42.037Z,98016.45
2019-05-21T23:48:14.620Z,98008.36
2019-05-21T23:50:46.670Z,98017.27
2019-05-21T23:53:18.846Z,98015.83
2019-05-21T23:55:51.089Z,98008.94
2019-05-21T23:58:23.158Z,98016.16
